Time;durP1;ratioP1;P1;durP2;ratioP2;P2;SDS_P1;SDS_P2;PMS_P1;PMS_P2;Temp;Humidity;BMP_temperature;BMP_pressure;BME280_temperature;BME280_humidity;BME280_pressure;Samples;Min_cycle;Max_cycle;Signal;HPM_P1;HPM_P2
2023/03/16 00:02:03;;;;;;;55.38;28.27;;;-1.20;99.90;;;;;;4973681;28;20019;-77
2023/03/16 00:04:29;;;;;;;66.47;28.77;;;-1.20;99.90;;;;;;4975028;28;20025;-78
2023/03/16 00:06:55;;;;;;;63.25;29.25;;;-1.20;99.90;;;;;;4974766;28;20031;-77
2023/03/16 00:09:21;;;;;;;75.35;30.98;;;-1.30;99.90;;;;;;4983977;28;20045;-78
2023/03/16 00:11:46;;;;;;;68.70;31.92;;;-1.30;99.90;;;;;;4993914;28;20026;-77
2023/03/16 00:14:12;;;;;;;81.57;39.17;;;-1.30;99.90;;;;;;4994157;28;20487;-78
2023/03/16 00:16:38;;;;;;;95.47;39.13;;;-1.30;99.90;;;;;;4992734;28;20117;-80
2023/03/16 00:19:04;;;;;;;99.10;42.72;;;-1.40;99.90;;;;;;4993814;28;20109;-80
2023/03/16 00:21:31;;;;;;;96.10;43.28;;;-1.40;99.90;;;;;;4992625;28;20110;-80
2023/03/16 00:23:57;;;;;;;80.85;34.35;;;-1.40;99.90;;;;;;4992670;28;20026;-79
2023/03/16 00:26:24;;;;;;;93.95;39.03;;;-1.50;99.90;;;;;;4993944;28;20482;-81
2023/03/16 00:28:53;;;;;;;76.28;33.97;;;-1.50;99.90;;;;;;4992959;28;20026;-81
2023/03/16 00:31:18;;;;;;;74.13;33.60;;;-1.60;99.90;;;;;;4992889;28;20377;-78
2023/03/16 00:33:44;;;;;;;78.10;36.50;;;-1.60;99.90;;;;;;4993745;28;20037;-76
2023/03/16 00:36:11;;;;;;;93.63;36.65;;;-1.70;99.90;;;;;;4992677;28;20033;-78
2023/03/16 00:38:48;;;;;;;113.22;48.20;;;-1.80;99.90;;;;;;4993823;28;20060;-76
2023/03/16 00:41:15;;;;;;;109.15;47.03;;;-1.80;99.90;;;;;;4994082;28;20369;-79
2023/03/16 00:43:43;;;;;;;97.38;45.40;;;-1.80;99.90;;;;;;4992626;28;20395;-79
2023/03/16 00:46:15;;;;;;;112.20;46.00;;;-1.90;99.90;;;;;;4992425;28;20032;-79
2023/03/16 00:48:42;;;;;;;115.13;46.45;;;-1.90;99.90;;;;;;4992384;28;20057;-77
2023/03/16 00:51:14;;;;;;;120.20;50.20;;;-2.00;99.90;;;;;;4993618;28;20027;-77
2023/03/16 00:53:42;;;;;;;125.20;49.97;;;-2.00;99.90;;;;;;4993493;28;20030;-78
2023/03/16 00:56:08;;;;;;;166.65;65.25;;;-2.00;99.90;;;;;;4992382;28;20109;-77
2023/03/16 00:58:36;;;;;;;393.25;145.63;;;-2.10;99.90;;;;;;4992372;28;20376;-80
2023/03/16 01:01:08;;;;;;;326.55;119.47;;;-2.10;99.90;;;;;;4993569;28;20029;-78
2023/03/16 01:03:33;;;;;;;411.58;140.35;;;-2.10;99.90;;;;;;4992789;28;20065;-77
2023/03/16 01:06:09;;;;;;;194.55;75.90;;;-2.10;99.90;;;;;;4996132;28;20050;-77
2023/03/16 01:08:36;;;;;;;93.65;39.97;;;-2.10;99.90;;;;;;4996736;28;20026;-80
2023/03/16 01:11:07;;;;;;;66.25;29.48;;;-2.20;99.90;;;;;;4995925;28;20034;-77
2023/03/16 01:13:33;;;;;;;65.13;28.13;;;-2.20;99.90;;;;;;4997355;28;20030;-78
2023/03/16 01:15:59;;;;;;;58.25;28.75;;;-2.30;99.90;;;;;;4995586;28;20101;-77
2023/03/16 01:18:26;;;;;;;70.95;31.63;;;-2.30;99.90;;;;;;4995901;28;20014;-78
2023/03/16 01:20:52;;;;;;;62.13;30.83;;;-2.30;99.90;;;;;;4997244;28;20032;-76
2023/03/16 01:23:18;;;;;;;76.15;33.35;;;-2.30;99.90;;;;;;4997204;28;20027;-77
2023/03/16 01:25:51;;;;;;;88.70;38.45;;;-2.30;99.90;;;;;;4995984;28;20023;-77
2023/03/16 01:28:19;;;;;;;108.47;48.17;;;-2.30;99.90;;;;;;4995860;28;20019;-77
2023/03/16 01:30:44;;;;;;;98.43;48.88;;;-2.30;99.90;;;;;;4997080;28;20029;-79
2023/03/16 01:33:10;;;;;;;104.38;51.03;;;-2.30;99.90;;;;;;4997077;28;20038;-79
2023/03/16 01:35:36;;;;;;;119.63;51.40;;;-2.30;99.90;;;;;;4995676;28;20376;-78
2023/03/16 01:38:01;;;;;;;101.43;45.17;;;-2.40;99.90;;;;;;4995902;28;20033;-78
2023/03/16 01:40:27;;;;;;;116.22;53.30;;;-2.40;99.90;;;;;;4995747;28;20022;-77
2023/03/16 01:43:01;;;;;;;103.40;47.30;;;-2.40;99.90;;;;;;4995483;28;20506;-79
2023/03/16 01:46:04;;;;;;;86.13;38.88;;;-2.50;99.90;;;;;;4995603;28;20034;-77
2023/03/16 01:48:36;;;;;;;90.60;40.22;;;-2.50;99.90;;;;;;4996703;28;20625;-77
2023/03/16 01:51:24;;;;;;;83.78;37.55;;;-2.50;99.90;;;;;;4996468;28;20173;-78
2023/03/16 01:53:56;;;;;;;77.85;36.33;;;-2.60;99.90;;;;;;5008754;28;20046;-77
2023/03/16 01:56:26;;;;;;;66.22;30.88;;;-2.70;99.90;;;;;;4977116;28;20030;-77
2023/03/16 01:58:57;;;;;;;60.83;30.98;;;-2.70;99.90;;;;;;4975951;28;20022;-78
2023/03/16 02:01:25;;;;;;;57.63;33.10;;;-2.60;99.90;;;;;;4975883;28;20037;-79
2023/03/16 02:03:56;;;;;;;68.38;31.40;;;-2.50;99.90;;;;;;4977042;28;20027;-78
2023/03/16 02:06:22;;;;;;;55.53;31.08;;;-2.50;99.90;;;;;;4976932;28;20391;-78
2023/03/16 02:08:49;;;;;;;61.92;30.63;;;-2.50;99.90;;;;;;4975724;28;20030;-78
2023/03/16 02:11:16;;;;;;;62.55;30.85;;;-2.50;99.90;;;;;;4976870;28;20027;-77
2023/03/16 02:13:46;;;;;;;72.47;32.40;;;-2.50;99.90;;;;;;4976905;28;20030;-80
2023/03/16 02:16:18;;;;;;;55.30;25.60;;;-2.60;99.90;;;;;;4976465;28;20037;-77
2023/03/16 02:18:45;;;;;;;45.30;24.08;;;-2.70;99.90;;;;;;4975773;28;20421;-77
2023/03/16 02:21:25;;;;;;;43.85;21.88;;;-2.80;99.90;;;;;;4976794;28;20454;-78
2023/03/16 02:23:52;;;;;;;49.70;22.63;;;-2.90;99.90;;;;;;4975505;28;20027;-78
2023/03/16 02:26:38;;;;;;;47.90;23.77;;;-2.90;99.90;;;;;;4976588;28;20093;-77
2023/03/16 02:29:13;;;;;;;56.00;24.33;;;-3.00;99.90;;;;;;4976928;28;20101;-79
2023/03/16 02:31:39;;;;;;;53.35;23.98;;;-3.00;99.90;;;;;;4975193;28;20034;-80
2023/03/16 02:34:05;;;;;;;51.83;25.48;;;-3.10;99.90;;;;;;4975338;28;20019;-79
2023/03/16 02:36:32;;;;;;;45.88;24.15;;;-3.10;99.90;;;;;;4976529;28;20093;-77
2023/03/16 02:38:58;;;;;;;53.70;25.15;;;-3.20;99.90;;;;;;4976329;28;20023;-80
2023/03/16 02:41:23;;;;;;;55.30;26.35;;;-3.20;99.90;;;;;;4975107;28;20544;-80
2023/03/16 02:44:14;;;;;;;57.67;26.48;;;-3.20;99.90;;;;;;4976418;28;20485;-80
2023/03/16 02:46:42;;;;;;;59.78;29.30;;;-3.20;99.90;;;;;;4975378;28;20051;-77
2023/03/16 02:49:25;;;;;;;59.35;29.00;;;-3.30;99.90;;;;;;4974750;28;20042;-76
2023/03/16 02:51:51;;;;;;;57.60;29.85;;;-3.30;99.90;;;;;;4975063;28;20034;-77
2023/03/16 02:54:17;;;;;;;75.22;35.10;;;-3.30;99.90;;;;;;4974871;28;20022;-78
2023/03/16 02:56:42;;;;;;;62.17;31.02;;;-3.40;99.90;;;;;;4974688;28;20019;-78
2023/03/16 02:59:08;;;;;;;61.15;30.55;;;-3.30;99.90;;;;;;4976084;28;20488;-78
2023/03/16 03:01:35;;;;;;;59.00;29.90;;;-3.40;99.90;;;;;;4974723;28;20027;-77
2023/03/16 03:04:01;;;;;;;54.65;28.70;;;-3.40;99.90;;;;;;4974752;28;20033;-80
2023/03/16 03:06:27;;;;;;;63.03;31.30;;;-3.40;99.90;;;;;;4974680;28;20073;-77
2023/03/16 03:08:53;;;;;;;57.30;29.63;;;-3.40;99.90;;;;;;4974677;28;20417;-79
2023/03/16 03:11:18;;;;;;;64.20;31.02;;;-3.40;99.90;;;;;;4974400;28;20489;-78
2023/03/16 03:13:45;;;;;;;78.97;35.55;;;-3.50;99.90;;;;;;4990920;28;20034;-78
2023/03/16 03:16:11;;;;;;;76.63;36.05;;;-3.50;99.90;;;;;;4993950;28;20022;-80
2023/03/16 03:18:37;;;;;;;68.88;32.35;;;-3.50;99.90;;;;;;4993911;28;20029;-79
2023/03/16 03:21:02;;;;;;;53.00;27.13;;;-3.50;99.90;;;;;;4993821;28;20480;-76
2023/03/16 03:23:28;;;;;;;54.28;25.23;;;-3.60;99.90;;;;;;4995161;28;20037;-79
2023/03/16 03:25:58;;;;;;;74.95;40.72;;;-3.60;99.90;;;;;;4993387;28;20019;-76
2023/03/16 03:28:23;;;;;;;60.05;29.50;;;-3.70;99.90;;;;;;4993406;28;20033;-75
2023/03/16 03:30:50;;;;;;;54.85;25.45;;;-3.80;99.90;;;;;;4994980;28;20049;-76
2023/03/16 03:33:16;;;;;;;47.40;23.58;;;-3.80;99.90;;;;;;4994722;28;20037;-77
2023/03/16 03:35:42;;;;;;;51.38;23.42;;;-3.80;99.90;;;;;;4990125;28;20019;-77
2023/03/16 03:38:07;;;;;;;50.25;23.98;;;-3.80;99.90;;;;;;4974178;28;20027;-77
2023/03/16 03:40:33;;;;;;;56.92;27.17;;;-3.80;99.90;;;;;;4975302;28;20027;-76
2023/03/16 03:42:59;;;;;;;55.10;26.40;;;-3.80;99.90;;;;;;4975321;28;20061;-77
2023/03/16 03:45:25;;;;;;;61.85;27.67;;;-3.80;99.90;;;;;;4975141;28;20023;-77
2023/03/16 03:47:51;;;;;;;48.65;26.58;;;-3.90;99.90;;;;;;4975079;28;20109;-76
2023/03/16 03:50:16;;;;;;;59.20;27.52;;;-3.80;99.90;;;;;;4975207;28;20098;-75
2023/03/16 03:52:42;;;;;;;54.08;27.17;;;-3.80;99.90;;;;;;4973769;28;20138;-77
2023/03/16 03:55:08;;;;;;;52.60;26.58;;;-3.90;99.90;;;;;;4975219;28;20203;-77
2023/03/16 03:57:34;;;;;;;56.47;27.13;;;-3.80;99.90;;;;;;4974844;28;20068;-76
2023/03/16 04:00:00;;;;;;;46.83;26.17;;;-3.80;99.90;;;;;;4975007;28;20026;-76
2023/03/16 04:02:26;;;;;;;57.05;26.58;;;-3.80;99.90;;;;;;4974781;28;20374;-78
2023/03/16 04:04:51;;;;;;;60.38;26.38;;;-3.90;99.90;;;;;;4973662;28;20500;-75
2023/03/16 04:07:17;;;;;;;50.33;28.25;;;-3.90;99.90;;;;;;4973592;28;20496;-75
2023/03/16 04:09:43;;;;;;;56.42;26.85;;;-3.90;99.90;;;;;;4974868;28;20389;-78
2023/03/16 04:12:10;;;;;;;59.88;28.42;;;-3.80;99.90;;;;;;4973387;28;20042;-77
2023/03/16 04:14:36;;;;;;;58.17;29.13;;;-3.80;99.90;;;;;;4974547;28;20061;-76
2023/03/16 04:17:03;;;;;;;56.05;28.17;;;-3.80;99.90;;;;;;4973360;28;20050;-77
2023/03/16 04:19:29;;;;;;;55.83;28.35;;;-3.80;99.90;;;;;;4974685;28;20042;-79
2023/03/16 04:21:55;;;;;;;61.85;27.20;;;-3.70;99.90;;;;;;4973332;28;20031;-79
2023/03/16 04:24:21;;;;;;;58.05;28.98;;;-3.70;99.90;;;;;;4974443;28;20019;-79
2023/03/16 04:26:47;;;;;;;58.08;29.67;;;-3.70;99.90;;;;;;4973141;28;20097;-78
2023/03/16 04:29:16;;;;;;;64.10;29.58;;;-3.70;99.90;;;;;;4973374;28;20429;-77
2023/03/16 04:31:43;;;;;;;65.32;33.05;;;-3.70;99.90;;;;;;4973240;28;20047;-77
2023/03/16 04:34:10;;;;;;;68.57;33.30;;;-3.70;99.90;;;;;;4974569;28;20033;-77
2023/03/16 04:36:37;;;;;;;61.28;31.63;;;-3.70;99.90;;;;;;4974485;28;20035;-79
2023/03/16 04:39:04;;;;;;;60.35;32.10;;;-3.80;99.90;;;;;;4973063;28;20114;-79
2023/03/16 04:41:30;;;;;;;64.32;32.00;;;-3.80;99.90;;;;;;4974307;28;20034;-77
2023/03/16 04:43:57;;;;;;;77.13;34.95;;;-3.80;99.90;;;;;;4973015;28;20058;-77
2023/03/16 04:46:25;;;;;;;69.93;34.05;;;-3.90;99.90;;;;;;4973096;28;20477;-78
2023/03/16 04:48:51;;;;;;;69.55;33.88;;;-3.90;99.90;;;;;;4973166;28;20047;-79
2023/03/16 04:51:16;;;;;;;71.00;33.95;;;-4.00;99.90;;;;;;4973094;28;20015;-77
2023/03/16 04:53:43;;;;;;;73.85;36.30;;;-4.00;99.90;;;;;;4974344;28;20045;-75
2023/03/16 04:56:16;;;;;;;72.32;37.42;;;-4.00;99.90;;;;;;4974177;28;20081;-77
2023/03/16 04:58:43;;;;;;;72.65;37.30;;;-4.10;99.90;;;;;;4984459;28;20027;-77
2023/03/16 05:01:09;;;;;;;81.78;39.08;;;-4.00;99.90;;;;;;4992339;28;20042;-77
2023/03/16 05:03:34;;;;;;;73.25;37.25;;;-4.10;99.90;;;;;;4993395;28;20048;-77
2023/03/16 05:06:00;;;;;;;74.03;37.60;;;-4.20;99.90;;;;;;4993432;28;20033;-77
2023/03/16 05:08:25;;;;;;;83.70;39.85;;;-4.20;99.90;;;;;;4993594;28;20018;-79
2023/03/16 05:10:56;;;;;;;77.80;37.33;;;-4.20;99.90;;;;;;4993506;28;20113;-77
2023/03/16 05:13:21;;;;;;;78.32;35.47;;;-4.20;99.90;;;;;;4993726;28;20063;-75
2023/03/16 05:15:47;;;;;;;77.38;36.38;;;-4.30;99.90;;;;;;4993610;28;20026;-78
2023/03/16 05:18:12;;;;;;;71.40;34.75;;;-4.30;99.90;;;;;;4992331;28;20027;-78
2023/03/16 05:20:38;;;;;;;74.88;37.50;;;-4.30;99.90;;;;;;4992027;28;20068;-78
2023/03/16 05:23:04;;;;;;;75.07;36.97;;;-4.30;99.90;;;;;;4992215;28;20026;-78
2023/03/16 05:25:31;;;;;;;85.78;42.13;;;-4.30;99.90;;;;;;4992058;28;20022;-77
2023/03/16 05:27:57;;;;;;;73.13;35.70;;;-4.30;99.90;;;;;;4980584;28;20030;-77
2023/03/16 05:30:23;;;;;;;75.95;34.67;;;-4.30;99.90;;;;;;4972645;28;20027;-78
2023/03/16 05:32:48;;;;;;;63.28;30.98;;;-4.30;99.90;;;;;;4973899;28;20054;-77
2023/03/16 05:35:14;;;;;;;63.33;32.58;;;-4.30;99.90;;;;;;4972725;28;20038;-77
2023/03/16 05:37:41;;;;;;;72.93;32.10;;;-4.20;99.90;;;;;;4972552;28;20050;-77
2023/03/16 05:40:21;;;;;;;52.88;28.25;;;-4.20;99.90;;;;;;4972772;28;20029;-79
2023/03/16 05:42:53;;;;;;;52.50;25.63;;;-4.20;99.90;;;;;;4972495;28;20022;-77
2023/03/16 05:45:19;;;;;;;59.63;29.85;;;-4.10;99.90;;;;;;4974084;28;20058;-78
2023/03/16 05:47:44;;;;;;;55.60;26.88;;;-4.10;99.90;;;;;;4973827;28;20101;-77
2023/03/16 05:50:12;;;;;;;56.17;29.73;;;-4.00;99.90;;;;;;4973787;28;20373;-79
2023/03/16 05:52:39;;;;;;;55.35;26.83;;;-3.90;99.90;;;;;;4975927;28;20039;-78
2023/03/16 05:55:06;;;;;;;50.58;25.67;;;-3.90;99.90;;;;;;4977342;28;20038;-77
2023/03/16 05:57:35;;;;;;;54.35;25.35;;;-3.90;99.90;;;;;;4982114;28;20022;-79
2023/03/16 06:00:18;;;;;;;54.47;26.13;;;-3.80;99.90;;;;;;4983244;28;20035;-79
2023/03/16 06:02:48;;;;;;;;;;;-3.70;99.90;;;;;;4981516;28;20030;-77
2023/03/16 06:05:15;;;;;;;55.38;24.77;;;-3.60;99.90;;;;;;4983886;28;19916;-79
2023/03/16 06:07:41;;;;;;;56.80;25.10;;;-3.60;99.90;;;;;;4990558;28;20395;-79
2023/03/16 06:10:08;;;;;;;48.90;24.63;;;-3.50;99.90;;;;;;4988731;28;20491;-76
2023/03/16 06:12:33;;;;;;;55.30;25.13;;;-3.40;99.90;;;;;;4995858;28;20030;-77
2023/03/16 06:15:00;;;;;;;58.03;28.88;;;-3.30;99.90;;;;;;4994531;28;20034;-76
2023/03/16 06:17:26;;;;;;;58.22;27.02;;;-3.20;99.90;;;;;;4994792;28;20026;-80
2023/03/16 06:19:51;;;;;;;50.97;28.02;;;-3.00;99.90;;;;;;4994389;28;20025;-77
2023/03/16 06:22:17;;;;;;;55.38;27.83;;;-2.80;99.90;;;;;;4995988;28;20514;-76
2023/03/16 06:24:43;;;;;;;55.10;27.63;;;-2.70;99.90;;;;;;4995634;28;20026;-76
2023/03/16 06:27:09;;;;;;;51.53;26.80;;;-2.50;99.90;;;;;;4976020;28;20377;-76
2023/03/16 06:29:35;;;;;;;53.55;26.98;;;-2.30;99.90;;;;;;4975924;28;20026;-79
2023/03/16 06:32:00;;;;;;;51.97;27.80;;;-2.10;99.90;;;;;;4978530;28;20038;-77
2023/03/16 06:34:26;;;;;;;61.97;27.52;;;-2.00;99.90;;;;;;4975196;28;20429;-79
2023/03/16 06:36:52;;;;;;;54.78;26.33;;;-1.80;99.90;;;;;;4990574;28;20031;-79
2023/03/16 06:39:17;;;;;;;52.88;28.55;;;-1.70;99.90;;;;;;4985426;28;20401;-79
2023/03/16 06:41:43;;;;;;;53.25;27.10;;;-1.60;99.90;;;;;;4980893;28;20081;-80
2023/03/16 06:44:10;;;;;;;55.67;27.38;;;-1.40;99.90;;;;;;4986767;28;20077;-77
2023/03/16 06:46:36;;;;;;;44.50;24.98;;;-1.30;99.90;;;;;;4978554;28;20034;-77
2023/03/16 06:49:03;;;;;;;48.63;26.65;;;-1.20;99.90;;;;;;4983102;28;20381;-80
2023/03/16 06:51:30;;;;;;;50.20;25.70;;;-1.10;99.90;;;;;;4982521;28;20022;-80
2023/03/16 06:53:56;;;;;;;53.30;26.92;;;-1.00;99.90;;;;;;4980139;28;20419;-78
2023/03/16 06:56:22;;;;;;;52.80;26.38;;;-0.80;99.90;;;;;;4982877;28;20027;-78
2023/03/16 06:58:47;;;;;;;52.42;26.83;;;-0.70;99.90;;;;;;4984459;28;20042;-80
2023/03/16 07:01:13;;;;;;;48.60;25.08;;;-0.50;99.90;;;;;;4981544;28;20097;-80
2023/03/16 07:03:38;;;;;;;50.05;26.83;;;-0.50;99.90;;;;;;4980883;28;20026;-78
2023/03/16 07:06:04;;;;;;;50.30;25.25;;;-0.30;99.90;;;;;;4983286;28;20023;-80
2023/03/16 07:08:30;;;;;;;88.10;41.53;;;-0.20;99.90;;;;;;4981182;28;20388;-78
2023/03/16 07:10:56;;;;;;;59.17;30.75;;;-0.10;99.90;;;;;;4977341;28;20027;-77
2023/03/16 07:13:22;;;;;;;58.00;27.05;;;0.10;99.90;;;;;;4983283;28;20114;-80
2023/03/16 07:15:51;;;;;;;54.20;28.30;;;0.20;99.90;;;;;;4988300;28;20023;-80
2023/03/16 07:18:18;;;;;;;54.17;28.50;;;0.30;99.90;;;;;;4974306;28;20023;-78
2023/03/16 07:20:44;;;;;;;50.95;26.33;;;0.50;99.90;;;;;;4975617;28;20114;-77
2023/03/16 07:23:11;;;;;;;53.67;26.48;;;0.70;99.90;;;;;;4974537;28;20409;-77
2023/03/16 07:25:37;;;;;;;51.03;26.05;;;0.80;99.90;;;;;;4975461;28;20035;-80
2023/03/16 07:28:03;;;;;;;40.20;23.02;;;1.00;99.90;;;;;;4974339;28;20077;-80
2023/03/16 07:30:28;;;;;;;40.17;21.23;;;1.00;99.90;;;;;;4974204;28;20065;-79
2023/03/16 07:32:54;;;;;;;55.10;25.80;;;1.20;99.90;;;;;;4980197;28;20095;-78
2023/03/16 07:35:20;;;;;;;35.08;19.90;;;1.30;99.90;;;;;;4974357;28;20459;-78
2023/03/16 07:37:46;;;;;;;35.97;18.10;;;1.40;99.90;;;;;;4974913;28;20104;-78
2023/03/16 07:40:13;;;;;;;32.47;19.27;;;1.40;99.90;;;;;;4975596;28;20030;-77
2023/03/16 07:42:39;;;;;;;29.00;15.65;;;1.50;99.90;;;;;;4974201;28;20023;-78
2023/03/16 07:45:06;;;;;;;31.15;18.58;;;1.40;99.90;;;;;;4974076;28;20023;-78
2023/03/16 07:47:32;;;;;;;29.80;17.33;;;1.60;99.90;;;;;;4973863;28;20051;-78
2023/03/16 07:49:58;;;;;;;28.30;16.13;;;1.60;99.90;;;;;;4975377;28;20022;-78
2023/03/16 07:52:24;;;;;;;25.83;15.23;;;1.80;99.90;;;;;;4975130;28;20031;-77
2023/03/16 07:54:50;;;;;;;25.52;15.45;;;2.00;99.90;;;;;;4973974;28;20114;-78
2023/03/16 07:57:15;;;;;;;26.55;13.82;;;2.00;98.10;;;;;;4979068;28;20022;-79
2023/03/16 07:59:41;;;;;;;28.67;17.33;;;2.10;94.60;;;;;;4975064;28;20035;-76
2023/03/16 08:02:18;;;;;;;24.27;13.88;;;2.20;92.40;;;;;;4973770;28;20050;-79
2023/03/16 08:04:44;;;;;;;24.65;12.02;;;2.30;91.00;;;;;;4973736;28;20049;-78
2023/03/16 08:07:13;;;;;;;21.92;13.98;;;2.40;88.30;;;;;;4973355;28;20388;-78
2023/03/16 08:09:40;;;;;;;46.05;21.73;;;2.50;87.70;;;;;;4974724;28;20027;-78
2023/03/16 08:12:07;;;;;;;41.50;22.05;;;2.70;89.10;;;;;;4976541;28;20026;-79
2023/03/16 08:14:34;;;;;;;27.10;15.27;;;2.80;90.00;;;;;;4978215;28;20065;-77
2023/03/16 08:17:00;;;;;;;31.83;18.52;;;2.80;89.10;;;;;;4973820;28;20023;-78
2023/03/16 08:19:26;;;;;;;30.98;17.25;;;3.00;86.50;;;;;;4974420;28;20046;-80
2023/03/16 08:21:52;;;;;;;26.23;14.55;;;3.20;87.90;;;;;;4973282;28;20041;-80
2023/03/16 08:24:18;;;;;;;28.05;14.55;;;3.10;83.20;;;;;;4973415;28;20057;-78
2023/03/16 08:26:44;;;;;;;27.35;17.23;;;3.20;82.10;;;;;;4974512;28;20027;-79
2023/03/16 08:29:10;;;;;;;27.42;16.92;;;3.20;82.30;;;;;;4973418;28;20074;-78
2023/03/16 08:31:35;;;;;;;34.55;17.73;;;3.30;84.50;;;;;;4973160;28;20026;-78
2023/03/16 08:34:02;;;;;;;28.60;15.88;;;3.30;82.40;;;;;;4974622;28;20097;-79
2023/03/16 08:36:29;;;;;;;26.75;15.70;;;3.40;81.00;;;;;;4973174;28;20081;-79
2023/03/16 08:38:55;;;;;;;31.63;16.30;;;3.50;81.50;;;;;;4972401;28;20031;-79
2023/03/16 08:41:21;;;;;;;29.13;15.70;;;3.70;81.20;;;;;;4972632;28;20022;-77
2023/03/16 08:43:46;;;;;;;20.40;14.80;;;3.70;79.50;;;;;;4972558;28;20389;-77
2023/03/16 08:46:13;;;;;;;17.30;9.95;;;4.00;77.90;;;;;;4972430;28;20023;-78
2023/03/16 08:48:40;;;;;;;23.63;11.18;;;4.10;74.10;;;;;;4972282;28;20067;-78
2023/03/16 08:51:08;;;;;;;18.70;10.55;;;4.40;73.20;;;;;;4972325;28;20019;-80
2023/03/16 08:53:35;;;;;;;22.17;12.30;;;4.60;71.50;;;;;;4971408;28;20381;-78
2023/03/16 08:56:03;;;;;;;26.75;12.95;;;4.70;71.20;;;;;;4973088;28;20030;-79
2023/03/16 08:58:31;;;;;;;17.73;10.95;;;4.60;70.00;;;;;;4972975;28;20026;-77
2023/03/16 09:00:58;;;;;;;15.07;8.40;;;4.40;69.90;;;;;;4972866;28;20511;-78
2023/03/16 09:03:24;;;;;;;12.02;10.30;;;4.10;66.70;;;;;;4973028;28;20374;-80
2023/03/16 09:05:51;;;;;;;8.52;4.40;;;3.90;66.30;;;;;;4974100;28;20027;-80
2023/03/16 09:08:17;;;;;;;6.07;5.45;;;3.50;64.50;;;;;;4972972;28;20058;-77
2023/03/16 09:10:43;;;;;;;17.90;10.55;;;3.40;65.20;;;;;;4972862;28;20019;-77
2023/03/16 09:13:09;;;;;;;5.40;4.40;;;3.40;66.20;;;;;;4974166;28;20039;-79
2023/03/16 09:15:35;;;;;;;9.57;3.67;;;3.40;66.30;;;;;;4974348;28;20027;-79
2023/03/16 09:18:02;;;;;;;9.45;4.15;;;3.50;66.00;;;;;;4974180;28;20440;-79
2023/03/16 09:20:28;;;;;;;6.68;2.85;;;3.50;65.90;;;;;;4972943;28;20026;-77
2023/03/16 09:22:55;;;;;;;8.60;3.97;;;3.70;65.50;;;;;;4972689;28;20019;-79
2023/03/16 09:25:21;;;;;;;11.90;4.55;;;4.10;64.90;;;;;;4975705;28;20023;-77
2023/03/16 09:27:46;;;;;;;9.55;4.32;;;4.40;63.90;;;;;;4977819;28;20025;-79
2023/03/16 09:30:13;;;;;;;5.00;3.03;;;4.70;64.00;;;;;;4976727;28;20381;-79
2023/03/16 09:32:39;;;;;;;8.23;6.65;;;4.60;62.20;;;;;;4977646;28;20113;-78
2023/03/16 09:35:05;;;;;;;6.50;4.40;;;4.30;63.00;;;;;;4977822;28;20089;-79
2023/03/16 09:37:32;;;;;;;10.35;5.70;;;4.20;63.30;;;;;;4976325;28;20023;-78
2023/03/16 09:39:57;;;;;;;5.85;5.30;;;4.10;64.30;;;;;;4977664;28;20041;-79
2023/03/16 09:42:33;;;;;;;9.32;4.50;;;4.20;64.20;;;;;;4977715;28;20098;-77
2023/03/16 09:45:21;;;;;;;12.52;5.80;;;4.70;65.30;;;;;;4976477;28;20563;-78
2023/03/16 09:47:50;;;;;;;8.32;4.35;;;4.90;64.60;;;;;;4976321;28;20082;-78
2023/03/16 09:50:24;;;;;;;5.78;3.78;;;5.00;63.50;;;;;;4976104;28;20097;-78
2023/03/16 09:53:08;;;;;;;12.75;8.82;;;5.10;63.30;;;;;;4976168;28;20091;-78
2023/03/16 09:55:36;;;;;;;9.45;5.15;;;5.00;61.80;;;;;;4976093;28;20073;-78
2023/03/16 09:58:06;;;;;;;11.63;6.30;;;4.60;60.70;;;;;;4977182;28;20393;-77
2023/03/16 10:01:04;;;;;;;13.13;7.63;;;4.20;63.00;;;;;;4976019;28;20113;-77
2023/03/16 10:03:58;;;;;;;9.50;7.65;;;4.10;63.70;;;;;;4977358;28;20438;-79
2023/03/16 10:06:25;;;;;;;12.07;5.60;;;4.00;64.50;;;;;;4975894;28;20401;-77
2023/03/16 10:09:16;;;;;;;20.25;18.30;;;3.80;64.60;;;;;;4977137;28;20022;-79
2023/03/16 10:11:47;;;;;;;14.30;12.80;;;3.80;65.40;;;;;;4980453;28;20436;-78
2023/03/16 10:14:37;;;;;;;12.00;10.38;;;4.00;65.50;;;;;;4976944;28;20023;-79
2023/03/16 10:17:25;;;;;;;16.20;14.02;;;4.00;65.60;;;;;;4977045;28;20038;-79
2023/03/16 10:19:56;;;;;;;16.27;14.20;;;4.00;65.20;;;;;;4975662;28;20023;-80
2023/03/16 10:22:26;;;;;;;10.52;5.10;;;4.00;65.20;;;;;;4975637;28;20027;-79
2023/03/16 10:24:56;;;;;;;22.27;12.32;;;4.00;65.40;;;;;;4975581;28;20031;-78
2023/03/16 10:27:31;;;;;;;18.88;10.82;;;4.00;64.50;;;;;;4975531;28;20370;-79
2023/03/16 10:29:57;;;;;;;15.00;13.13;;;4.00;63.70;;;;;;4975552;28;20061;-79
2023/03/16 10:32:27;;;;;;;6.03;3.88;;;4.00;63.20;;;;;;4975329;28;20066;-78
2023/03/16 10:35:01;;;;;;;5.75;4.07;;;3.90;62.80;;;;;;4976587;28;20057;-78
2023/03/16 10:37:29;;;;;;;8.60;4.35;;;3.90;63.50;;;;;;4975166;28;20023;-79
2023/03/16 10:39:56;;;;;;;8.43;5.25;;;3.90;62.90;;;;;;4975450;28;20106;-78
2023/03/16 10:42:23;;;;;;;6.30;3.63;;;3.90;62.60;;;;;;4976500;28;20485;-77
2023/03/16 10:44:55;;;;;;;183.07;141.05;;;3.90;61.80;;;;;;4976487;28;20404;-77
2023/03/16 10:47:23;;;;;;;203.60;154.07;;;3.90;62.10;;;;;;4976310;28;20062;-80
2023/03/16 10:49:50;;;;;;;68.20;34.15;;;4.00;62.30;;;;;;4975129;28;20031;-79
2023/03/16 10:52:22;;;;;;;16.35;8.48;;;4.50;62.00;;;;;;4974989;28;20535;-79
2023/03/16 10:55:00;;;;;;;41.72;18.15;;;4.60;60.10;;;;;;4975123;28;20062;-78
2023/03/16 10:57:32;;;;;;;29.10;15.77;;;4.60;60.00;;;;;;4975088;28;20026;-78
2023/03/16 11:00:13;;;;;;;21.47;8.70;;;4.60;60.00;;;;;;4974967;28;20113;-79
2023/03/16 11:02:39;;;;;;;16.52;13.40;;;4.70;59.80;;;;;;4976283;28;20767;-80
2023/03/16 11:05:34;;;;;;;14.10;9.60;;;4.70;59.40;;;;;;4974931;28;20014;-79
2023/03/16 11:08:08;;;;;;;13.10;6.57;;;4.80;59.80;;;;;;4967836;28;20492;-78
2023/03/16 11:10:36;;;;;;;44.33;37.97;;;4.70;58.80;;;;;;4976006;28;20029;-79
2023/03/16 11:13:05;;;;;;;45.10;20.58;;;4.70;58.30;;;;;;4975891;28;20473;-79
2023/03/16 11:15:49;;;;;;;30.38;14.38;;;4.60;57.20;;;;;;4974977;28;20035;-79
2023/03/16 11:18:42;;;;;;;49.35;29.38;;;4.50;57.80;;;;;;4976349;28;20026;-78
2023/03/16 11:21:24;;;;;;;8.40;7.43;;;4.50;58.40;;;;;;4974765;28;20035;-79
2023/03/16 11:23:54;;;;;;;10.20;4.57;;;4.40;58.50;;;;;;4975862;28;20381;-77
2023/03/16 11:26:32;;;;;;;5.22;4.55;;;4.40;59.00;;;;;;4975763;28;20031;-79
2023/03/16 11:29:21;;;;;;;6.82;4.45;;;4.60;59.30;;;;;;4974502;28;20089;-77
2023/03/16 11:31:55;;;;;;;5.10;3.40;;;4.60;57.50;;;;;;4975421;28;20429;-77
2023/03/16 11:34:28;;;;;;;6.75;3.47;;;4.60;56.90;;;;;;4975537;28;20023;-79
2023/03/16 11:36:54;;;;;;;46.50;41.47;;;4.70;57.00;;;;;;4975508;28;20061;-77
2023/03/16 11:39:23;;;;;;;154.55;138.68;;;4.70;57.20;;;;;;4975508;28;20433;-77
2023/03/16 11:42:38;;;;;;;73.78;66.38;;;4.70;56.90;;;;;;4974092;28;20062;-78
2023/03/16 11:45:18;;;;;;;14.70;13.27;;;4.70;57.70;;;;;;4972561;28;20030;-79
2023/03/16 11:48:20;;;;;;;11.18;7.93;;;4.60;57.30;;;;;;4974759;28;20058;-78
2023/03/16 11:50:49;;;;;;;3.75;2.97;;;4.70;57.40;;;;;;4975253;28;20402;-78
2023/03/16 11:53:45;;;;;;;6.90;4.07;;;4.60;55.20;;;;;;4975244;28;20046;-77
2023/03/16 11:56:20;;;;;;;9.73;8.65;;;4.60;55.60;;;;;;4973875;28;20130;-78
2023/03/16 11:59:00;;;;;;;4.22;3.28;;;4.70;56.20;;;;;;4975069;28;20082;-79
2023/03/16 12:01:56;;;;;;;3.92;2.92;;;4.70;55.60;;;;;;4975127;28;20484;-79
2023/03/16 12:04:45;;;;;;;5.47;3.53;;;4.60;55.40;;;;;;4973794;28;20029;-78
2023/03/16 12:07:28;;;;;;;9.23;8.27;;;4.70;55.40;;;;;;4975357;28;20018;-79
2023/03/16 12:10:17;;;;;;;26.77;9.85;;;4.90;56.10;;;;;;4973815;28;20035;-79
2023/03/16 12:13:07;;;;;;;48.13;11.38;;;5.00;57.20;;;;;;4973513;28;20034;-78
2023/03/16 12:15:50;;;;;;;44.50;13.30;;;5.20;59.00;;;;;;4974781;28;20417;-78
2023/03/16 12:18:25;;;;;;;8.75;5.57;;;5.40;58.40;;;;;;4973587;28;20022;-79
2023/03/16 12:21:01;;;;;;;46.08;15.57;;;5.40;57.00;;;;;;4973453;28;20076;-79
2023/03/16 12:23:51;;;;;;;7.72;3.38;;;5.50;57.50;;;;;;4973482;28;20046;-78
2023/03/16 12:26:19;;;;;;;5.82;5.15;;;5.50;56.70;;;;;;4974736;28;20442;-79
2023/03/16 12:28:47;;;;;;;3.45;2.60;;;5.40;54.50;;;;;;4974709;28;20365;-79
2023/03/16 12:31:54;;;;;;;6.18;5.45;;;5.20;52.60;;;;;;4974645;28;20102;-80
2023/03/16 12:34:39;;;;;;;4.78;2.78;;;5.00;53.30;;;;;;4974655;28;20027;-79
2023/03/16 12:37:29;;;;;;;2.88;2.60;;;4.90;53.40;;;;;;4973695;28;20034;-78
2023/03/16 12:40:07;;;;;;;3.85;2.75;;;4.80;53.40;;;;;;4973329;28;20041;-79
2023/03/16 12:42:43;;;;;;;6.35;3.92;;;4.60;55.30;;;;;;4973231;28;20027;-78
2023/03/16 12:45:30;;;;;;;5.20;2.67;;;4.80;55.90;;;;;;4973279;28;20612;-79
2023/03/16 12:48:39;;;;;;;4.90;2.50;;;4.90;53.40;;;;;;4973167;28;20413;-78